createdAt,value
2022-12-31T00:00:35.357Z,95.13
2022-12-31T00:01:35.320Z,94.93
2022-12-31T00:02:35.319Z,94.93
2022-12-31T00:03:35.314Z,94.98
2022-12-31T00:04:35.248Z,95.03
2022-12-31T00:05:35.202Z,95.03
2022-12-31T00:06:35.223Z,95.03
2022-12-31T00:08:07.497Z,94.89
2022-12-31T00:09:08.488Z,94.78
2022-12-31T00:10:08.374Z,94.78
2022-12-31T00:11:08.356Z,94.82
2022-12-31T00:12:08.333Z,94.93
2022-12-31T00:13:08.314Z,94.78
2022-12-31T00:14:08.315Z,95.09
2022-12-31T00:15:08.123Z,94.98
2022-12-31T00:16:12.050Z,94.89
2022-12-31T00:17:08.300Z,94.98
2022-12-31T00:18:08.349Z,94.98
2022-12-31T00:19:08.218Z,94.98
2022-12-31T00:20:08.318Z,94.98
2022-12-31T00:21:08.294Z,94.98
2022-12-31T00:22:08.279Z,94.89
2022-12-31T00:23:08.257Z,94.89
2022-12-31T00:24:08.128Z,94.78
2022-12-31T00:25:08.242Z,94.58
2022-12-31T00:26:08.212Z,94.27
2022-12-31T00:27:08.182Z,94.17
2022-12-31T00:28:08.165Z,94.48
2022-12-31T00:29:07.988Z,94.68
2022-12-31T00:30:08.129Z,94.89
2022-12-31T00:31:08.389Z,95.09
2022-12-31T00:32:08.089Z,95.29
2022-12-31T00:33:08.071Z,95.39
2022-12-31T00:34:08.057Z,95.60
2022-12-31T00:35:08.059Z,95.80
2022-12-31T00:36:08.186Z,96.11
2022-12-31T00:37:08.174Z,96.36
2022-12-31T00:38:07.986Z,96.36
2022-12-31T00:39:08.128Z,96.36
2022-12-31T00:40:08.107Z,96.26
2022-12-31T00:41:07.967Z,96.15
2022-12-31T00:42:08.111Z,96.51
2022-12-31T00:43:07.958Z,96.56
2022-12-31T00:44:07.941Z,96.62
2022-12-31T00:45:07.938Z,96.92
2022-12-31T00:46:07.987Z,96.92
2022-12-31T00:47:08.085Z,96.97
2022-12-31T00:48:07.911Z,96.97
2022-12-31T00:49:08.021Z,96.92
2022-12-31T00:50:08.000Z,96.77
2022-12-31T00:51:07.963Z,96.83
2022-12-31T00:52:08.012Z,96.77
2022-12-31T00:53:07.918Z,96.51
2022-12-31T00:54:07.974Z,96.42
2022-12-31T00:55:07.932Z,96.01
2022-12-31T00:56:07.909Z,96.11
2022-12-31T00:57:07.954Z,96.11
2022-12-31T00:58:07.934Z,95.50
2022-12-31T00:59:07.920Z,95.29
2022-12-31T01:00:07.921Z,95.19
2022-12-31T01:01:07.951Z,95.39
2022-12-31T01:02:08.039Z,95.39
2022-12-31T01:03:07.818Z,95.29
2022-12-31T01:04:07.883Z,95.39
2022-12-31T01:05:07.857Z,95.39
2022-12-31T01:06:07.859Z,95.29
2022-12-31T01:07:07.830Z,95.29
2022-12-31T01:08:07.874Z,95.39
2022-12-31T01:09:07.766Z,95.50
2022-12-31T01:10:07.801Z,95.19
2022-12-31T01:11:07.779Z,95.19
2022-12-31T01:12:07.740Z,95.29
2022-12-31T01:13:07.800Z,94.89
2022-12-31T01:14:07.855Z,94.89
2022-12-31T01:15:07.751Z,94.78
2022-12-31T01:16:07.784Z,94.78
2022-12-31T01:17:07.738Z,94.78
2022-12-31T01:18:07.520Z,94.68
2022-12-31T01:19:07.744Z,94.78
2022-12-31T01:20:07.734Z,94.58
2022-12-31T01:21:07.635Z,94.48
2022-12-31T01:22:07.694Z,94.48
2022-12-31T01:23:07.684Z,94.37
2022-12-31T01:24:07.621Z,94.27
2022-12-31T01:25:07.741Z,94.07
2022-12-31T01:26:07.626Z,94.27
2022-12-31T01:27:07.604Z,93.86
2022-12-31T01:28:07.575Z,93.66
2022-12-31T01:29:07.560Z,93.55
2022-12-31T01:30:07.700Z,93.51
2022-12-31T01:31:07.601Z,93.51
2022-12-31T01:32:07.541Z,93.51
2022-12-31T01:33:07.535Z,93.31
2022-12-31T01:34:07.533Z,93.00
2022-12-31T01:35:07.602Z,92.80
2022-12-31T01:36:07.507Z,92.80
2022-12-31T01:37:07.490Z,93.00
2022-12-31T01:38:07.478Z,92.69
2022-12-31T01:39:07.545Z,92.69
2022-12-31T01:40:07.503Z,92.59
2022-12-31T01:41:07.551Z,92.39
2022-12-31T01:42:07.514Z,92.29
2022-12-31T01:43:07.494Z,92.19
2022-12-31T01:44:07.453Z,92.29
2022-12-31T01:45:07.485Z,92.49
2022-12-31T01:46:07.550Z,92.19
2022-12-31T01:47:07.436Z,92.19
2022-12-31T01:48:07.400Z,92.19
2022-12-31T01:49:07.372Z,92.29
2022-12-31T01:50:07.348Z,92.19
2022-12-31T01:51:07.408Z,92.39
2022-12-31T01:52:07.322Z,92.39
2022-12-31T01:53:07.285Z,92.49
2022-12-31T01:54:07.335Z,92.08
2022-12-31T01:55:07.293Z,92.14
2022-12-31T01:56:07.343Z,92.14
2022-12-31T01:57:07.315Z,92.55
2022-12-31T01:58:07.287Z,92.45
2022-12-31T01:59:07.255Z,93.16
2022-12-31T02:00:07.248Z,93.00
2022-12-31T02:01:07.268Z,93.37
2022-12-31T02:02:07.452Z,93.62
2022-12-31T02:03:07.253Z,93.71
2022-12-31T02:04:07.247Z,93.92
2022-12-31T02:05:07.165Z,94.12
2022-12-31T02:06:07.167Z,94.23
2022-12-31T02:07:07.230Z,94.53
2022-12-31T02:08:07.300Z,94.64
2022-12-31T02:09:07.186Z,95.04
2022-12-31T02:10:07.170Z,95.04
2022-12-31T02:11:07.150Z,95.45
2022-12-31T02:12:07.124Z,95.56
2022-12-31T02:13:07.155Z,96.06
2022-12-31T02:14:06.962Z,96.31
2022-12-31T02:15:07.057Z,96.72
2022-12-31T02:16:07.138Z,96.51
2022-12-31T02:17:07.054Z,96.92
2022-12-31T02:18:07.159Z,96.92
2022-12-31T02:19:07.117Z,96.83
2022-12-31T02:20:07.082Z,97.44
2022-12-31T02:21:07.044Z,97.33
2022-12-31T02:22:07.087Z,97.44
2022-12-31T02:23:07.138Z,97.54
2022-12-31T02:24:07.092Z,97.54
2022-12-31T02:25:07.056Z,97.64
2022-12-31T02:26:07.009Z,97.54
2022-12-31T02:27:07.048Z,97.44
2022-12-31T02:28:06.925Z,97.58
2022-12-31T02:29:07.035Z,97.74
2022-12-31T02:30:07.083Z,97.74
2022-12-31T02:31:07.006Z,97.44
2022-12-31T02:32:06.964Z,97.44
2022-12-31T02:33:06.939Z,97.33
2022-12-31T02:34:06.987Z,97.24
2022-12-31T02:35:06.961Z,97.24
2022-12-31T02:36:06.931Z,97.24
2022-12-31T02:37:06.895Z,97.13
2022-12-31T02:38:06.923Z,97.03
2022-12-31T02:39:06.874Z,97.03
2022-12-31T02:40:06.919Z,96.92
2022-12-31T02:41:06.817Z,96.72
2022-12-31T02:42:06.847Z,96.68
2022-12-31T02:43:06.821Z,96.47
2022-12-31T02:44:06.792Z,96.37
2022-12-31T02:45:06.844Z,96.37
2022-12-31T02:46:06.835Z,96.17
2022-12-31T02:47:06.786Z,96.17
2022-12-31T02:48:06.750Z,96.17
2022-12-31T02:49:06.595Z,96.17
2022-12-31T02:50:06.738Z,96.27
2022-12-31T02:51:06.724Z,96.47
2022-12-31T02:52:06.707Z,96.58
2022-12-31T02:53:06.680Z,96.78
2022-12-31T02:54:06.767Z,96.88
2022-12-31T02:55:06.733Z,97.19
2022-12-31T02:56:06.694Z,97.29
2022-12-31T02:57:06.685Z,97.49
2022-12-31T02:58:06.658Z,97.60
2022-12-31T02:59:06.623Z,97.80
2022-12-31T03:00:06.608Z,97.70
2022-12-31T03:01:06.785Z,97.70
2022-12-31T03:02:06.787Z,97.60
2022-12-31T03:03:06.687Z,97.49
2022-12-31T03:04:06.680Z,97.14
2022-12-31T03:05:06.527Z,96.94
2022-12-31T03:06:06.751Z,96.84
2022-12-31T03:07:06.656Z,96.43
2022-12-31T03:08:06.651Z,96.63
2022-12-31T03:09:06.715Z,96.22
2022-12-31T03:10:06.612Z,95.72
2022-12-31T03:11:06.594Z,95.72
2022-12-31T03:12:06.579Z,95.16
2022-12-31T03:13:06.567Z,94.95
2022-12-31T03:14:06.619Z,94.45
2022-12-31T03:15:06.519Z,94.24
2022-12-31T03:16:06.560Z,93.99
2022-12-31T03:17:06.489Z,93.99
2022-12-31T03:18:06.557Z,93.48
2022-12-31T03:19:06.540Z,93.79
2022-12-31T03:20:06.528Z,93.28
2022-12-31T03:21:06.524Z,93.48
2022-12-31T03:22:06.513Z,93.48
2022-12-31T03:23:06.569Z,92.97
2022-12-31T03:24:06.468Z,92.52
2022-12-31T03:25:06.465Z,92.01
2022-12-31T03:26:06.418Z,92.01
2022-12-31T03:27:06.404Z,92.11
2022-12-31T03:28:06.394Z,92.01
2022-12-31T03:29:06.446Z,91.81
2022-12-31T03:30:06.423Z,91.87
2022-12-31T03:31:06.456Z,91.66
2022-12-31T03:32:06.387Z,91.36
2022-12-31T03:33:06.437Z,91.16
2022-12-31T03:34:06.439Z,91.26
2022-12-31T03:35:06.338Z,91.46
2022-12-31T03:36:06.312Z,91.46
2022-12-31T03:37:06.301Z,91.56
2022-12-31T03:38:06.285Z,91.97
2022-12-31T03:39:06.350Z,91.26
2022-12-31T03:40:06.257Z,91.36
2022-12-31T03:41:06.319Z,90.95
2022-12-31T03:42:06.296Z,90.91
2022-12-31T03:43:06.365Z,90.91
2022-12-31T03:44:06.347Z,90.91
2022-12-31T03:45:06.284Z,90.91
2022-12-31T03:46:06.309Z,90.91
2022-12-31T03:47:06.142Z,90.70
2022-12-31T03:48:06.216Z,90.81
2022-12-31T03:49:06.275Z,90.40
2022-12-31T03:50:06.169Z,90.70
2022-12-31T03:51:06.167Z,90.50
2022-12-31T03:52:06.148Z,90.30
2022-12-31T03:53:06.125Z,90.40
2022-12-31T03:54:06.300Z,89.99
2022-12-31T03:55:06.152Z,90.09
2022-12-31T03:56:06.147Z,89.89
2022-12-31T03:57:06.140Z,89.75
2022-12-31T03:58:06.087Z,89.79
2022-12-31T03:59:06.054Z,89.89
2022-12-31T04:00:06.125Z,89.79
2022-12-31T04:01:06.158Z,89.59
2022-12-31T04:02:06.183Z,89.79
2022-12-31T04:03:06.272Z,89.59
2022-12-31T04:04:06.035Z,89.34
2022-12-31T04:05:06.015Z,89.24
2022-12-31T04:06:05.999Z,89.14
2022-12-31T04:07:05.992Z,89.14
2022-12-31T04:08:06.058Z,89.14
2022-12-31T04:09:05.976Z,89.14
2022-12-31T04:10:05.977Z,88.32
2022-12-31T04:11:05.953Z,88.42
2022-12-31T04:12:06.029Z,88.63
2022-12-31T04:13:05.947Z,88.32
2022-12-31T04:14:05.940Z,88.73
2022-12-31T04:15:06.007Z,88.53
2022-12-31T04:16:05.922Z,88.73
2022-12-31T04:17:05.882Z,88.73
2022-12-31T04:18:05.875Z,88.02
2022-12-31T04:19:05.948Z,88.42
2022-12-31T04:20:05.864Z,87.81
2022-12-31T04:21:05.863Z,87.77
2022-12-31T04:22:05.852Z,87.87
2022-12-31T04:23:05.853Z,87.71
2022-12-31T04:24:05.867Z,87.98
2022-12-31T04:25:05.772Z,87.06
2022-12-31T04:26:05.764Z,87.57
2022-12-31T04:27:07.967Z,87.47
2022-12-31T04:28:05.759Z,87.57
2022-12-31T04:29:05.815Z,87.98
2022-12-31T04:30:05.737Z,87.77
2022-12-31T04:31:05.741Z,88.18
2022-12-31T04:32:05.754Z,88.08
2022-12-31T04:33:05.678Z,88.28
2022-12-31T04:34:05.568Z,87.77
2022-12-31T04:35:05.700Z,88.08
2022-12-31T04:36:05.879Z,88.48
2022-12-31T04:37:05.701Z,88.69
2022-12-31T04:38:05.625Z,88.28
2022-12-31T04:39:05.635Z,87.87
2022-12-31T04:40:06.860Z,87.77
2022-12-31T04:41:05.665Z,88.18
2022-12-31T04:42:05.526Z,87.98
2022-12-31T04:43:05.707Z,88.59
2022-12-31T04:44:05.568Z,88.08
2022-12-31T04:45:05.577Z,88.59
2022-12-31T04:46:05.618Z,88.79
2022-12-31T04:47:05.611Z,88.39
2022-12-31T04:48:05.477Z,88.79
2022-12-31T04:49:05.464Z,89.00
2022-12-31T04:50:05.568Z,88.89
2022-12-31T04:51:05.551Z,89.09
2022-12-31T04:52:05.527Z,88.59
2022-12-31T04:53:05.528Z,88.69
2022-12-31T04:54:05.527Z,88.89
2022-12-31T04:55:05.404Z,89.00
2022-12-31T04:56:05.392Z,88.69
2022-12-31T04:57:05.377Z,89.20
2022-12-31T04:58:05.484Z,89.20
2022-12-31T04:59:05.370Z,89.30
2022-12-31T05:00:05.345Z,89.81
2022-12-31T05:01:05.512Z,90.11
2022-12-31T05:02:05.644Z,90.52
2022-12-31T05:03:05.537Z,90.86
2022-12-31T05:04:05.370Z,91.07
2022-12-31T05:05:05.287Z,91.48
2022-12-31T05:06:05.355Z,91.68
2022-12-31T05:07:05.337Z,92.29
2022-12-31T05:08:05.456Z,91.88
2022-12-31T05:09:05.252Z,92.29
2022-12-31T05:10:05.261Z,92.49
2022-12-31T05:11:05.276Z,92.64
2022-12-31T05:12:05.217Z,92.74
2022-12-31T05:13:05.312Z,92.94
2022-12-31T05:14:05.239Z,92.74
2022-12-31T05:15:05.248Z,93.05
2022-12-31T05:16:05.169Z,93.45
2022-12-31T05:17:05.182Z,93.55
2022-12-31T05:18:05.175Z,93.86
2022-12-31T05:19:05.249Z,93.86
2022-12-31T05:20:05.158Z,94.37
2022-12-31T05:21:05.156Z,94.88
2022-12-31T05:22:05.152Z,95.18
2022-12-31T05:23:05.228Z,95.18
2022-12-31T05:24:05.148Z,95.53
2022-12-31T05:25:05.144Z,95.53
2022-12-31T05:26:05.223Z,95.64
2022-12-31T05:27:05.136Z,95.53
2022-12-31T05:28:05.141Z,95.03
2022-12-31T05:29:05.068Z,95.03
2022-12-31T05:30:05.094Z,94.92
2022-12-31T05:31:05.142Z,94.21
2022-12-31T05:32:05.121Z,94.21
2022-12-31T05:33:05.059Z,94.01
2022-12-31T05:34:05.013Z,92.74
2022-12-31T05:35:05.034Z,93.05
2022-12-31T05:36:05.060Z,92.64
2022-12-31T05:37:04.995Z,92.54
2022-12-31T05:38:05.087Z,92.33
2022-12-31T05:39:05.013Z,92.33
2022-12-31T05:40:04.873Z,92.80
2022-12-31T05:41:05.033Z,92.19
2022-12-31T05:42:04.956Z,92.90
2022-12-31T05:43:04.967Z,93.10
2022-12-31T05:44:04.898Z,93.45
2022-12-31T05:45:04.989Z,93.76
2022-12-31T05:46:04.961Z,93.76
2022-12-31T05:47:04.925Z,93.55
2022-12-31T05:48:04.915Z,93.86
2022-12-31T05:49:04.911Z,93.96
2022-12-31T05:50:04.964Z,94.17
2022-12-31T05:51:04.903Z,94.37
2022-12-31T05:52:04.748Z,94.47
2022-12-31T05:53:04.765Z,94.47
2022-12-31T05:54:04.785Z,94.37
2022-12-31T05:55:04.813Z,94.88
2022-12-31T05:56:04.834Z,95.18
2022-12-31T05:57:04.833Z,94.88
2022-12-31T05:58:04.851Z,94.88
2022-12-31T05:59:04.737Z,94.88
2022-12-31T06:00:04.749Z,94.98
2022-12-31T06:01:04.714Z,95.08
2022-12-31T06:02:04.749Z,95.18
2022-12-31T06:03:04.778Z,94.88
2022-12-31T06:04:04.767Z,95.18
2022-12-31T06:05:04.686Z,95.08
2022-12-31T06:06:04.682Z,95.18
2022-12-31T06:07:04.673Z,95.18
2022-12-31T06:08:04.785Z,94.98
2022-12-31T06:09:04.592Z,94.57
2022-12-31T06:10:04.588Z,93.96
2022-12-31T06:11:04.603Z,93.76
2022-12-31T06:12:04.626Z,93.76
2022-12-31T06:13:04.571Z,93.76
2022-12-31T06:14:04.669Z,93.25
2022-12-31T06:15:04.522Z,93.55
2022-12-31T06:16:04.675Z,93.45
2022-12-31T06:17:04.558Z,93.15
2022-12-31T06:18:04.651Z,93.05
2022-12-31T06:19:04.572Z,92.90
2022-12-31T06:20:10.511Z,91.99
2022-12-31T06:21:04.569Z,91.88
2022-12-31T06:22:04.496Z,91.78
2022-12-31T06:23:04.496Z,91.38
2022-12-31T06:24:04.577Z,91.58
2022-12-31T06:25:04.586Z,90.31
2022-12-31T06:26:04.453Z,89.61
2022-12-31T06:27:04.462Z,89.70
2022-12-31T06:28:04.544Z,89.30
2022-12-31T06:29:04.474Z,89.20
2022-12-31T06:30:04.482Z,89.50
2022-12-31T06:31:04.467Z,88.79
2022-12-31T06:32:04.409Z,88.79
2022-12-31T06:33:04.427Z,88.54
2022-12-31T06:34:04.375Z,88.24
2022-12-31T06:35:04.462Z,88.04
2022-12-31T06:36:04.213Z,88.04
2022-12-31T06:37:04.334Z,87.73
2022-12-31T06:38:04.339Z,87.43
2022-12-31T06:39:04.344Z,87.53
2022-12-31T06:40:04.358Z,87.53
2022-12-31T06:41:04.358Z,87.63
2022-12-31T06:42:04.275Z,87.43
2022-12-31T06:43:04.295Z,87.23
2022-12-31T06:44:04.457Z,87.32
2022-12-31T06:45:04.315Z,87.23
2022-12-31T06:46:04.238Z,87.23
2022-12-31T06:47:04.153Z,87.43
2022-12-31T06:48:04.150Z,87.23
2022-12-31T06:49:04.140Z,86.61
2022-12-31T06:50:04.136Z,86.37
2022-12-31T06:51:04.278Z,86.37
2022-12-31T06:52:04.112Z,85.96
2022-12-31T06:53:04.134Z,86.07
2022-12-31T06:54:04.133Z,86.16
2022-12-31T06:55:04.140Z,86.37
2022-12-31T06:56:04.139Z,86.77
2022-12-31T06:57:04.160Z,86.27
2022-12-31T06:58:04.166Z,86.16
2022-12-31T06:59:04.143Z,85.96
2022-12-31T07:00:04.128Z,86.57
2022-12-31T07:01:03.988Z,86.27
2022-12-31T07:02:04.170Z,86.37
2022-12-31T07:03:04.108Z,86.57
2022-12-31T07:04:04.052Z,85.80
2022-12-31T07:05:04.024Z,85.86
2022-12-31T07:06:04.017Z,85.86
2022-12-31T07:07:04.027Z,85.55
2022-12-31T07:08:04.019Z,85.76
2022-12-31T07:09:03.889Z,85.76
2022-12-31T07:10:03.994Z,85.25
2022-12-31T07:11:03.899Z,85.25
2022-12-31T07:12:04.032Z,84.74
2022-12-31T07:13:04.038Z,84.54
2022-12-31T07:14:03.926Z,84.40
2022-12-31T07:15:03.874Z,85.05
2022-12-31T07:16:03.914Z,84.64
2022-12-31T07:17:03.896Z,84.20
2022-12-31T07:18:03.834Z,84.34
2022-12-31T07:19:03.928Z,84.30
2022-12-31T07:20:03.781Z,83.69
2022-12-31T07:21:03.798Z,83.69
2022-12-31T07:22:03.826Z,83.69
2022-12-31T07:23:03.816Z,83.18
2022-12-31T07:24:03.908Z,83.59
2022-12-31T07:25:03.834Z,83.08
2022-12-31T07:26:03.774Z,83.89
2022-12-31T07:27:03.766Z,82.94
2022-12-31T07:28:03.757Z,82.87
2022-12-31T07:29:03.768Z,82.84
2022-12-31T07:30:03.872Z,82.53
2022-12-31T07:31:03.927Z,82.64
2022-12-31T07:32:03.746Z,82.64
2022-12-31T07:33:03.753Z,82.73
2022-12-31T07:34:03.676Z,82.94
2022-12-31T07:35:03.681Z,82.84
2022-12-31T07:36:03.782Z,82.84
2022-12-31T07:37:03.667Z,82.73
2022-12-31T07:38:03.654Z,83.14
2022-12-31T07:39:03.738Z,83.54
2022-12-31T07:40:03.667Z,83.04
2022-12-31T07:41:09.508Z,83.04
2022-12-31T07:42:03.677Z,83.24
2022-12-31T07:43:03.607Z,83.34
2022-12-31T07:44:03.575Z,83.45
2022-12-31T07:45:03.651Z,83.04
2022-12-31T07:46:03.654Z,83.34
2022-12-31T07:47:03.550Z,83.14
2022-12-31T07:48:03.557Z,82.43
2022-12-31T07:49:03.556Z,82.73
2022-12-31T07:50:03.560Z,82.64
2022-12-31T07:51:03.631Z,82.53
2022-12-31T07:52:03.623Z,82.33
2022-12-31T07:53:03.620Z,82.23
2022-12-31T07:54:06.433Z,82.33
2022-12-31T07:55:03.492Z,81.92
2022-12-31T07:56:03.473Z,81.72
2022-12-31T07:57:03.546Z,81.01
2022-12-31T07:58:03.513Z,81.07
2022-12-31T07:59:03.464Z,81.07
2022-12-31T08:00:03.476Z,80.87
2022-12-31T08:01:03.566Z,80.97
2022-12-31T08:02:03.500Z,80.36
2022-12-31T08:03:03.520Z,80.36
2022-12-31T08:04:03.384Z,80.46
2022-12-31T08:05:03.405Z,80.46
2022-12-31T08:06:03.417Z,80.26
2022-12-31T08:07:03.262Z,80.16
2022-12-31T08:08:03.425Z,79.96
2022-12-31T08:09:03.269Z,80.06
2022-12-31T08:10:03.292Z,79.55
2022-12-31T08:11:03.273Z,80.36
2022-12-31T08:12:03.267Z,80.06
2022-12-31T08:13:03.266Z,80.36
2022-12-31T08:14:03.160Z,79.96
2022-12-31T08:15:03.134Z,80.77
2022-12-31T08:16:03.181Z,80.77
2022-12-31T08:17:03.225Z,80.26
2022-12-31T08:18:03.226Z,80.36
2022-12-31T08:19:03.085Z,80.66
2022-12-31T08:20:03.080Z,80.57
2022-12-31T08:21:03.241Z,80.36
2022-12-31T08:22:03.153Z,80.57
2022-12-31T08:23:03.015Z,80.36
2022-12-31T08:24:03.285Z,80.26
2022-12-31T08:25:03.173Z,80.57
2022-12-31T08:26:03.112Z,80.06
2022-12-31T08:27:02.987Z,80.16
2022-12-31T08:28:02.921Z,80.26
2022-12-31T08:29:02.975Z,80.77
2022-12-31T08:30:02.891Z,80.46
2022-12-31T08:31:02.961Z,80.46
2022-12-31T08:32:02.952Z,80.26
2022-12-31T08:33:02.901Z,80.36
2022-12-31T08:34:05.998Z,80.26
2022-12-31T08:35:02.891Z,80.06
2022-12-31T08:36:03.132Z,79.85
2022-12-31T08:37:02.867Z,80.36
2022-12-31T08:38:02.830Z,80.16
2022-12-31T08:39:02.934Z,79.75
2022-12-31T08:40:02.829Z,79.85
2022-12-31T08:41:02.999Z,79.75
2022-12-31T08:42:02.832Z,79.85
2022-12-31T08:43:03.013Z,79.35
2022-12-31T08:44:02.783Z,79.75
2022-12-31T08:45:02.767Z,79.75
2022-12-31T08:46:03.065Z,79.55
2022-12-31T08:47:03.025Z,79.55
2022-12-31T08:48:02.944Z,79.21
2022-12-31T08:49:02.969Z,79.41
2022-12-31T08:50:02.964Z,79.41
2022-12-31T08:51:02.895Z,79.00
2022-12-31T08:52:02.953Z,79.11
2022-12-31T08:53:02.869Z,79.31
2022-12-31T08:54:02.854Z,79.21
2022-12-31T08:55:02.856Z,78.60
2022-12-31T08:56:02.848Z,78.50
2022-12-31T08:57:02.918Z,78.50
2022-12-31T08:58:02.835Z,78.60
2022-12-31T08:59:02.829Z,78.60
2022-12-31T09:00:02.810Z,78.60
2022-12-31T09:01:02.891Z,78.40
2022-12-31T09:02:03.004Z,78.30
2022-12-31T09:03:02.755Z,77.99
2022-12-31T09:04:02.833Z,77.95
2022-12-31T09:05:02.803Z,77.55
2022-12-31T09:06:02.753Z,78.46
2022-12-31T09:07:02.859Z,78.46
2022-12-31T09:08:02.590Z,78.26
2022-12-31T09:09:02.737Z,77.95
2022-12-31T09:10:02.749Z,78.09
2022-12-31T09:11:02.688Z,77.95
2022-12-31T09:12:02.708Z,77.95
2022-12-31T09:13:02.491Z,77.65
2022-12-31T09:14:02.778Z,77.65
2022-12-31T09:15:02.760Z,78.56
2022-12-31T09:16:02.545Z,78.36
2022-12-31T09:17:02.543Z,78.66
2022-12-31T09:18:02.542Z,79.07
2022-12-31T09:19:02.550Z,78.46
2022-12-31T09:20:02.517Z,78.87
2022-12-31T09:21:02.551Z,78.56
2022-12-31T09:22:02.488Z,78.26
2022-12-31T09:23:02.492Z,78.36
2022-12-31T09:24:07.588Z,78.16
2022-12-31T09:25:02.383Z,77.95
2022-12-31T09:26:02.583Z,77.86
2022-12-31T09:27:02.648Z,77.65
2022-12-31T09:28:02.544Z,77.86
2022-12-31T09:29:02.356Z,77.51
2022-12-31T09:30:02.288Z,77.51
2022-12-31T09:31:02.305Z,76.80
2022-12-31T09:32:02.421Z,76.50
2022-12-31T09:33:02.298Z,76.29
2022-12-31T09:34:02.385Z,75.89
2022-12-31T09:35:02.380Z,75.76
2022-12-31T09:36:02.558Z,76.06
2022-12-31T09:37:02.525Z,75.85
2022-12-31T09:38:05.295Z,75.45
2022-12-31T09:39:02.347Z,75.35
2022-12-31T09:40:02.337Z,75.35
2022-12-31T09:41:02.317Z,75.45
2022-12-31T09:42:02.295Z,75.01
2022-12-31T09:43:02.440Z,75.21
2022-12-31T09:44:02.274Z,74.60
2022-12-31T09:45:02.264Z,74.81
2022-12-31T09:46:02.501Z,74.91
2022-12-31T09:47:02.456Z,74.91
2022-12-31T09:48:02.280Z,75.01
2022-12-31T09:49:02.272Z,74.95
2022-12-31T09:50:02.274Z,74.84
2022-12-31T09:51:02.280Z,75.25
2022-12-31T09:52:02.275Z,75.11
2022-12-31T09:53:02.256Z,74.84
2022-12-31T09:54:02.242Z,75.04
2022-12-31T09:55:02.235Z,74.91
2022-12-31T09:56:02.229Z,74.74
2022-12-31T09:57:02.036Z,75.04
2022-12-31T09:58:02.221Z,75.01
2022-12-31T09:59:01.991Z,74.81
2022-12-31T10:00:01.967Z,74.81
2022-12-31T10:01:02.320Z,74.71
2022-12-31T10:02:02.371Z,75.11
2022-12-31T10:03:02.215Z,74.60
2022-12-31T10:04:02.095Z,74.71
2022-12-31T10:05:01.947Z,74.51
2022-12-31T10:06:01.926Z,74.40
2022-12-31T10:07:01.941Z,74.51
2022-12-31T10:08:01.938Z,74.20
2022-12-31T10:09:01.928Z,74.60
2022-12-31T10:10:01.900Z,74.13
2022-12-31T10:11:01.891Z,74.71
2022-12-31T10:12:01.892Z,73.93
2022-12-31T10:13:01.849Z,74.33
2022-12-31T10:14:01.850Z,74.10
2022-12-31T10:15:01.871Z,73.93
2022-12-31T10:16:01.801Z,73.69
2022-12-31T10:17:01.865Z,73.19
2022-12-31T10:18:01.815Z,73.39
2022-12-31T10:19:01.841Z,74.10
2022-12-31T10:20:01.846Z,74.00
2022-12-31T10:21:01.735Z,73.69
2022-12-31T10:22:01.806Z,74.10
2022-12-31T10:23:01.749Z,74.51
2022-12-31T10:24:01.777Z,74.51
2022-12-31T10:25:01.716Z,75.25
2022-12-31T10:26:01.746Z,74.64
2022-12-31T10:27:02.163Z,74.95
2022-12-31T10:28:01.990Z,75.55
2022-12-31T10:29:01.911Z,75.82
2022-12-31T10:30:01.848Z,75.62
2022-12-31T10:31:02.024Z,75.55
2022-12-31T10:32:01.853Z,75.42
2022-12-31T10:33:01.825Z,76.43
2022-12-31T10:34:01.853Z,75.82
2022-12-31T10:35:01.788Z,76.67
2022-12-31T10:36:01.873Z,76.77
2022-12-31T10:37:01.807Z,76.87
2022-12-31T10:38:01.679Z,77.48
2022-12-31T10:39:04.982Z,77.78
2022-12-31T10:40:01.741Z,77.17
2022-12-31T10:41:01.744Z,77.37
2022-12-31T10:42:01.626Z,77.37
2022-12-31T10:43:01.704Z,77.58
2022-12-31T10:44:01.693Z,78.79
2022-12-31T10:45:01.682Z,78.12
2022-12-31T10:46:01.756Z,78.12
2022-12-31T10:47:01.780Z,78.53
2022-12-31T10:48:01.699Z,78.33
2022-12-31T10:49:01.638Z,78.93
2022-12-31T10:50:01.637Z,78.79
2022-12-31T10:51:01.644Z,77.98
2022-12-31T10:52:01.736Z,77.88
2022-12-31T10:53:01.644Z,77.98
2022-12-31T10:54:01.640Z,77.28
2022-12-31T10:55:01.629Z,76.97
2022-12-31T10:56:01.633Z,77.88
2022-12-31T10:57:01.613Z,77.58
2022-12-31T10:58:04.308Z,77.48
2022-12-31T10:59:01.637Z,77.98
2022-12-31T11:00:01.695Z,77.68
2022-12-31T11:01:01.754Z,77.58
2022-12-31T11:02:01.617Z,77.78
2022-12-31T11:03:01.610Z,77.88
2022-12-31T11:04:01.541Z,77.17
2022-12-31T11:05:01.537Z,77.58
2022-12-31T11:06:01.550Z,77.07
2022-12-31T11:07:01.413Z,76.06
2022-12-31T11:08:01.401Z,76.06
2022-12-31T11:09:01.508Z,76.26
2022-12-31T11:10:01.406Z,75.92
2022-12-31T11:11:01.391Z,75.92
2022-12-31T11:12:01.394Z,76.06
2022-12-31T11:13:01.398Z,76.46
2022-12-31T11:14:01.391Z,77.07
2022-12-31T11:15:01.512Z,78.08
2022-12-31T11:16:01.424Z,78.39
2022-12-31T11:17:01.314Z,78.19
2022-12-31T11:18:01.314Z,78.79
2022-12-31T11:19:01.324Z,78.33
2022-12-31T11:20:01.467Z,78.83
2022-12-31T11:21:01.279Z,78.73
2022-12-31T11:22:01.140Z,78.83
2022-12-31T11:23:01.106Z,78.93
2022-12-31T11:24:01.155Z,79.34
2022-12-31T11:25:01.275Z,79.24
2022-12-31T11:26:01.356Z,78.83
2022-12-31T11:27:01.079Z,79.54
2022-12-31T11:28:01.137Z,79.34
2022-12-31T11:29:01.053Z,79.64
2022-12-31T11:30:01.168Z,80.29
2022-12-31T11:31:01.306Z,79.98
2022-12-31T11:32:01.185Z,79.38
2022-12-31T11:33:01.199Z,78.97
2022-12-31T11:34:01.214Z,79.34
2022-12-31T11:35:00.989Z,78.42
2022-12-31T11:36:01.244Z,77.51
2022-12-31T11:37:00.963Z,77.68
2022-12-31T11:38:00.975Z,77.28
2022-12-31T11:39:01.153Z,76.67
2022-12-31T11:40:01.155Z,76.67
2022-12-31T11:41:00.921Z,76.56
2022-12-31T11:42:01.236Z,76.16
2022-12-31T11:43:01.169Z,76.16
2022-12-31T11:44:00.907Z,76.26
2022-12-31T11:45:00.861Z,75.45
2022-12-31T11:46:01.074Z,75.55
2022-12-31T11:47:00.876Z,75.25
2022-12-31T11:49:00.914Z,75.35
2022-12-31T11:50:01.061Z,74.51
2022-12-31T11:51:00.985Z,74.51
2022-12-31T11:52:00.882Z,74.20
2022-12-31T11:53:01.124Z,74.16
2022-12-31T11:54:00.967Z,73.96
2022-12-31T11:55:00.763Z,72.92
2022-12-31T11:56:00.797Z,72.48
2022-12-31T11:57:00.854Z,70.19
2022-12-31T11:58:00.811Z,68.33
2022-12-31T11:59:03.628Z,68.10
2022-12-31T12:00:00.817Z,67.60
2022-12-31T12:01:00.996Z,67.19
2022-12-31T12:02:00.715Z,67.10
2022-12-31T12:03:00.945Z,68.44
2022-12-31T12:04:01.030Z,68.37
2022-12-31T12:05:05.056Z,69.42
2022-12-31T12:06:00.827Z,69.92
2022-12-31T12:07:00.976Z,69.48
2022-12-31T12:08:00.681Z,69.71
2022-12-31T12:09:00.871Z,70.02
2022-12-31T12:10:00.688Z,70.22
2022-12-31T12:11:00.748Z,70.12
2022-12-31T12:12:00.773Z,70.12
2022-12-31T12:13:00.678Z,70.62
2022-12-31T12:14:00.623Z,70.62
2022-12-31T12:15:00.743Z,70.42
2022-12-31T12:16:00.662Z,70.25
2022-12-31T12:17:04.636Z,70.25
2022-12-31T12:18:00.692Z,70.56
2022-12-31T12:19:00.796Z,70.96
2022-12-31T12:20:00.681Z,70.56
2022-12-31T12:21:00.712Z,70.86
2022-12-31T12:22:00.640Z,71.37
2022-12-31T12:23:00.519Z,70.86
2022-12-31T12:24:00.512Z,71.06
2022-12-31T12:25:00.696Z,70.86
2022-12-31T12:26:00.547Z,71.06
2022-12-31T12:27:00.527Z,70.76
2022-12-31T12:28:00.452Z,71.17
2022-12-31T12:29:00.525Z,70.86
2022-12-31T12:30:00.449Z,70.56
2022-12-31T12:31:00.583Z,70.76
2022-12-31T12:32:00.484Z,70.66
2022-12-31T12:33:00.406Z,70.46
2022-12-31T12:34:00.408Z,70.36
2022-12-31T12:35:00.529Z,70.66
2022-12-31T12:36:00.365Z,70.46
2022-12-31T12:37:00.595Z,70.76
2022-12-31T12:38:00.531Z,70.79
2022-12-31T12:39:00.557Z,71.09
2022-12-31T12:40:00.503Z,70.69
2022-12-31T12:41:00.525Z,70.49
2022-12-31T12:42:00.372Z,71.00
2022-12-31T12:43:00.533Z,71.20
2022-12-31T12:44:00.516Z,71.00
2022-12-31T12:45:00.311Z,71.09
2022-12-31T12:46:00.471Z,71.00
2022-12-31T12:47:00.463Z,71.80
2022-12-31T12:48:00.446Z,71.00
2022-12-31T12:49:00.461Z,71.60
2022-12-31T12:50:00.420Z,71.09
2022-12-31T12:51:00.441Z,71.60
2022-12-31T12:52:00.207Z,72.61
2022-12-31T12:53:00.408Z,73.32
2022-12-31T12:54:00.434Z,72.95